Time;durP1;ratioP1;P1;durP2;ratioP2;P2;SDS_P1;SDS_P2;PMS_P1;PMS_P2;Temp;Humidity;BMP_temperature;BMP_pressure;BME280_temperature;BME280_humidity;BME280_pressure;Samples;Min_cycle;Max_cycle;Signal;HPM_P1;HPM_P2
2023/05/11 00:00:01;;;;;;;22.43;11.73;;;14.30;99.90;;;;;;7293667;19;20205;-92
2023/05/11 00:02:28;;;;;;;23.67;12.23;;;14.20;99.90;;;;;;7293951;19;20192;-94
2023/05/11 00:04:54;;;;;;;22.27;12.33;;;14.10;99.90;;;;;;7295519;19;20204;-93
2023/05/11 00:07:20;;;;;;;25.80;12.87;;;14.20;99.90;;;;;;7302103;19;20200;-93
2023/05/11 00:09:46;;;;;;;25.67;12.53;;;14.20;99.90;;;;;;7294666;19;20189;-92
2023/05/11 00:12:13;;;;;;;20.30;11.47;;;14.20;99.90;;;;;;7294116;19;20177;-93
2023/05/11 00:14:39;;;;;;;20.50;11.50;;;14.10;99.90;;;;;;7315311;19;20190;-93
2023/05/11 00:17:05;;;;;;;20.43;11.43;;;14.10;99.90;;;;;;7294343;19;20189;-93
2023/05/11 00:19:31;;;;;;;24.47;12.27;;;14.10;99.90;;;;;;7292834;19;20221;-93
2023/05/11 00:22:01;;;;;;;22.23;12.10;;;14.10;99.90;;;;;;7292906;19;20189;-93
2023/05/11 00:24:27;;;;;;;25.60;12.27;;;14.00;99.90;;;;;;7294200;19;20193;-93
2023/05/11 00:26:53;;;;;;;27.50;13.10;;;14.00;99.90;;;;;;7292518;19;20191;-93
2023/05/11 00:29:19;;;;;;;23.33;12.43;;;14.00;99.90;;;;;;7293241;19;20242;-94
2023/05/11 00:31:48;;;;;;;20.37;12.23;;;14.10;99.90;;;;;;7291814;19;20676;-93
2023/05/11 00:34:15;;;;;;;20.77;12.03;;;14.10;99.90;;;;;;7292645;19;20264;-93
2023/05/11 00:36:42;;;;;;;24.07;12.30;;;14.20;99.90;;;;;;7295946;19;20220;-93
2023/05/11 00:39:11;;;;;;;20.80;11.20;;;14.20;99.90;;;;;;7304516;19;20233;-93
2023/05/11 00:41:40;;;;;;;22.77;11.53;;;14.30;99.90;;;;;;7316637;19;20269;-93
2023/05/11 00:44:07;;;;;;;23.97;12.30;;;14.40;99.90;;;;;;7294706;19;20278;-93
2023/05/11 00:46:33;;;;;;;25.63;12.13;;;14.50;99.90;;;;;;7291767;19;20185;-93
2023/05/11 00:48:59;;;;;;;22.83;12.00;;;14.60;99.90;;;;;;7294001;19;20840;-93
2023/05/11 00:51:26;;;;;;;23.97;11.47;;;14.60;99.90;;;;;;7304925;19;20193;-94
2023/05/11 00:53:52;;;;;;;24.50;11.33;;;14.70;99.90;;;;;;7293414;19;20187;-92
2023/05/11 00:56:19;;;;;;;23.03;9.93;;;14.70;99.90;;;;;;7292359;19;20603;-93
2023/05/11 00:58:45;;;;;;;22.20;9.83;;;14.70;99.90;;;;;;7292903;19;20184;-93
2023/05/11 01:01:11;;;;;;;23.23;9.27;;;14.80;99.90;;;;;;7296219;19;20188;-93
2023/05/11 01:03:37;;;;;;;22.60;8.97;;;14.80;99.90;;;;;;7315574;19;20732;-93
2023/05/11 01:06:11;;;;;;;19.70;8.80;;;14.80;99.90;;;;;;7292525;19;20189;-93
2023/05/11 01:09:11;;;;;;;19.47;8.07;;;14.70;99.90;;;;;;7293652;19;20228;-92
2023/05/11 01:11:42;;;;;;;20.83;7.43;;;14.70;99.90;;;;;;7197167;19;2004502;-92
2023/05/11 01:14:14;;;;;;;21.13;6.87;;;14.70;99.90;;;;;;7293728;19;20190;-93
2023/05/11 01:16:46;;;;;;;26.27;7.13;;;14.70;99.90;;;;;;7273153;19;20208;-92
2023/05/11 01:19:23;;;;;;;18.17;6.10;;;14.70;99.90;;;;;;7292470;19;20182;-93
2023/05/11 01:21:51;;;;;;;21.03;6.07;;;14.70;99.90;;;;;;7291593;19;20187;-93
2023/05/11 01:24:28;;;;;;;19.27;6.43;;;14.60;99.90;;;;;;7292258;19;20218;-93
2023/05/11 01:27:00;;;;;;;26.07;6.33;;;14.60;99.90;;;;;;7291341;19;20198;-93
2023/05/11 01:29:45;;;;;;;22.03;5.80;;;14.60;99.90;;;;;;7292468;19;20270;-93
2023/05/11 01:32:18;;;;;;;20.77;6.10;;;14.60;99.90;;;;;;7270375;19;20198;-92
2023/05/11 01:34:46;;;;;;;16.43;6.17;;;14.60;99.90;;;;;;7291379;19;20257;-94
2023/05/11 01:37:17;;;;;;;27.33;6.90;;;14.50;99.90;;;;;;7292243;19;20261;-92
2023/05/11 01:39:58;;;;;;;21.03;6.03;;;14.40;99.90;;;;;;7291969;19;20219;-92
2023/05/11 01:42:35;;;;;;;21.53;6.20;;;14.40;99.90;;;;;;7291245;19;20196;-93
2023/05/11 01:45:07;;;;;;;24.23;6.70;;;14.40;99.90;;;;;;7291880;19;20190;-93
2023/05/11 01:47:36;;;;;;;23.13;5.83;;;14.40;99.90;;;;;;7288272;19;20186;-93
2023/05/11 01:50:05;;;;;;;25.00;5.83;;;14.30;99.90;;;;;;7290749;19;20209;-93
2023/05/11 01:52:33;;;;;;;20.83;5.87;;;14.20;99.90;;;;;;7290830;19;20205;-92
2023/05/11 01:55:01;;;;;;;20.10;5.80;;;14.20;99.90;;;;;;7289853;19;20223;-92
2023/05/11 01:57:27;;;;;;;20.27;5.23;;;14.20;99.90;;;;;;7290892;19;20301;-93
2023/05/11 01:59:55;;;;;;;22.83;5.70;;;14.10;99.90;;;;;;7290051;19;20188;-93
2023/05/11 02:02:23;;;;;;;21.13;5.97;;;14.20;99.90;;;;;;7289674;19;20181;-93
2023/05/11 02:04:50;;;;;;;24.03;6.00;;;14.20;99.90;;;;;;7289546;19;20185;-92
2023/05/11 02:07:17;;;;;;;27.40;5.67;;;14.30;99.90;;;;;;7289575;19;20188;-92
2023/05/11 02:09:44;;;;;;;25.90;6.00;;;14.30;99.90;;;;;;7290627;19;20248;-93
2023/05/11 02:12:12;;;;;;;23.60;5.80;;;14.20;99.90;;;;;;7295348;19;20582;-93
2023/05/11 02:14:39;;;;;;;24.47;5.77;;;14.20;99.90;;;;;;7313402;19;20196;-94
2023/05/11 02:17:06;;;;;;;19.47;5.80;;;14.20;99.90;;;;;;7296456;19;20703;-94
2023/05/11 02:19:37;;;;;;;25.90;6.03;;;14.20;99.90;;;;;;7290913;19;20183;-93
2023/05/11 02:22:05;;;;;;;27.00;6.30;;;14.20;99.90;;;;;;7290084;19;20177;-93
2023/05/11 02:24:32;;;;;;;25.90;6.27;;;14.20;99.90;;;;;;7289680;19;20176;-93
2023/05/11 02:26:59;;;;;;;28.27;6.83;;;14.20;99.90;;;;;;7289585;19;20192;-93
2023/05/11 02:29:25;;;;;;;25.63;7.27;;;14.20;99.90;;;;;;7290619;19;20187;-92
2023/05/11 02:31:58;;;;;;;21.70;6.77;;;14.20;99.90;;;;;;7288528;19;20202;-92
2023/05/11 02:34:28;;;;;;;20.93;7.30;;;14.20;99.90;;;;;;7288344;19;20192;-92
2023/05/11 02:37:04;;;;;;;32.27;7.87;;;14.10;99.90;;;;;;7289017;19;20244;-92
2023/05/11 02:39:35;;;;;;;30.40;7.97;;;14.00;99.90;;;;;;7286635;19;20606;-93
2023/05/11 02:42:14;;;;;;;24.37;7.73;;;14.10;99.90;;;;;;7289481;19;20189;-92
2023/05/11 02:44:49;;;;;;;25.83;8.17;;;14.10;99.90;;;;;;7281839;19;20184;-93
2023/05/11 02:47:16;;;;;;;32.67;9.23;;;14.10;99.90;;;;;;7288435;19;20222;-93
2023/05/11 02:49:48;;;;;;;27.17;8.70;;;14.10;99.90;;;;;;7289024;19;20203;-93
2023/05/11 02:52:16;;;;;;;30.13;9.77;;;14.20;99.90;;;;;;7287717;19;20185;-92
2023/05/11 02:54:48;;;;;;;32.63;9.13;;;14.10;99.90;;;;;;7287509;19;20200;-92
2023/05/11 02:57:15;;;;;;;41.17;10.27;;;14.10;99.90;;;;;;7287237;19;20312;-92
2023/05/11 02:59:41;;;;;;;35.03;10.43;;;14.10;99.90;;;;;;7292748;19;20289;-93
2023/05/11 03:02:07;;;;;;;30.23;11.57;;;14.10;99.90;;;;;;7309724;19;20274;-93
2023/05/11 03:04:34;;;;;;;41.13;12.40;;;14.20;99.90;;;;;;7289264;19;20782;-92
2023/05/11 03:07:00;;;;;;;28.70;11.53;;;14.10;99.90;;;;;;7288613;19;20232;-92
2023/05/11 03:09:25;;;;;;;33.57;12.83;;;14.00;99.90;;;;;;7289063;19;20193;-92
2023/05/11 03:11:52;;;;;;;34.57;13.50;;;14.10;99.90;;;;;;7286863;19;20196;-93
2023/05/11 03:14:18;;;;;;;36.97;14.27;;;14.10;99.90;;;;;;7286282;19;20186;-92
2023/05/11 03:16:46;;;;;;;37.63;14.23;;;14.00;99.90;;;;;;7286488;19;20238;-93
2023/05/11 03:19:14;;;;;;;40.80;15.07;;;14.00;99.90;;;;;;7287540;19;20189;-93
2023/05/11 03:21:40;;;;;;;31.73;14.17;;;14.00;99.90;;;;;;7302774;19;20191;-92
2023/05/11 03:24:07;;;;;;;34.23;13.70;;;13.90;99.90;;;;;;7311068;19;20185;-92
2023/05/11 03:26:35;;;;;;;35.13;14.10;;;13.90;99.90;;;;;;7286014;19;20278;-92
2023/05/11 03:29:02;;;;;;;35.07;14.73;;;13.90;99.90;;;;;;7287545;19;20182;-93
2023/05/11 03:31:28;;;;;;;30.90;14.07;;;13.90;99.90;;;;;;7286847;19;20196;-93
2023/05/11 03:33:56;;;;;;;31.33;14.47;;;13.90;99.90;;;;;;7285904;19;20197;-92
2023/05/11 03:36:24;;;;;;;32.23;14.63;;;13.90;99.90;;;;;;7287212;19;20208;-93
2023/05/11 03:38:55;;;;;;;37.63;14.83;;;13.90;99.90;;;;;;7285527;19;20708;-92
2023/05/11 03:41:22;;;;;;;36.90;15.07;;;13.90;99.90;;;;;;7285333;19;20684;-92
2023/05/11 03:43:53;;;;;;;38.93;15.23;;;13.90;99.90;;;;;;7287195;19;20181;-92
2023/05/11 03:46:21;;;;;;;32.43;14.57;;;14.00;99.90;;;;;;7284122;19;20196;-92
2023/05/11 03:48:48;;;;;;;29.23;14.20;;;14.00;99.90;;;;;;7285294;19;20197;-92
2023/05/11 03:51:19;;;;;;;36.10;13.90;;;14.00;99.90;;;;;;7286677;19;20206;-92
2023/05/11 03:53:45;;;;;;;33.50;14.70;;;14.00;99.90;;;;;;7286349;19;20709;-91
2023/05/11 03:56:11;;;;;;;33.43;14.67;;;14.00;99.90;;;;;;7288720;19;20209;-92
2023/05/11 03:58:39;;;;;;;34.77;13.87;;;14.00;99.90;;;;;;7308656;19;20279;-92
2023/05/11 04:01:07;;;;;;;32.50;12.97;;;14.10;99.90;;;;;;7285914;19;20278;-92
2023/05/11 04:03:33;;;;;;;31.27;12.70;;;14.00;99.90;;;;;;7287437;19;20193;-92
2023/05/11 04:05:59;;;;;;;32.83;12.83;;;14.00;99.90;;;;;;7284718;19;20197;-93
2023/05/11 04:08:25;;;;;;;27.23;12.00;;;13.90;99.90;;;;;;7286249;19;20601;-92
2023/05/11 04:10:51;;;;;;;30.90;12.53;;;13.70;99.90;;;;;;7292690;19;20188;-93
2023/05/11 04:13:17;;;;;;;27.53;12.00;;;13.80;99.90;;;;;;7293033;19;20196;-93
2023/05/11 04:15:43;;;;;;;29.73;11.60;;;13.80;99.90;;;;;;7290830;19;20658;-93
2023/05/11 04:18:09;;;;;;;30.67;11.73;;;13.70;99.90;;;;;;7315285;19;20189;-93
2023/05/11 04:20:36;;;;;;;28.43;12.10;;;13.70;99.90;;;;;;7293055;19;20204;-92
2023/05/11 04:23:02;;;;;;;23.17;11.03;;;13.60;99.90;;;;;;7292970;19;20196;-92
2023/05/11 04:25:30;;;;;;;29.33;11.93;;;13.60;99.90;;;;;;7294169;19;20228;-93
2023/05/11 04:27:55;;;;;;;28.40;11.77;;;13.60;99.90;;;;;;7296275;19;20189;-93
2023/05/11 04:30:21;;;;;;;30.87;11.50;;;13.60;99.90;;;;;;7294410;19;20190;-93
2023/05/11 04:32:47;;;;;;;24.43;10.90;;;13.70;99.90;;;;;;7293294;19;20189;-92
2023/05/11 04:35:13;;;;;;;23.83;9.97;;;13.70;99.90;;;;;;7292865;19;20195;-93
2023/05/11 04:37:39;;;;;;;24.13;10.23;;;13.70;99.90;;;;;;7313603;19;20193;-92
2023/05/11 04:40:08;;;;;;;23.27;10.20;;;13.60;99.90;;;;;;7292374;19;20196;-93
2023/05/11 04:42:38;;;;;;;22.27;9.03;;;13.70;99.90;;;;;;7293759;19;20708;-92
2023/05/11 04:45:08;;;;;;;26.43;9.67;;;13.70;99.90;;;;;;7291171;19;20185;-92
2023/05/11 04:47:34;;;;;;;24.80;9.73;;;13.90;99.90;;;;;;7291096;19;20214;-91
2023/05/11 04:50:00;;;;;;;24.10;9.57;;;13.90;99.90;;;;;;7291353;19;20629;-91
2023/05/11 04:52:26;;;;;;;29.10;9.30;;;14.00;99.90;;;;;;7291961;19;20190;-92
2023/05/11 04:54:55;;;;;;;20.60;8.43;;;14.00;99.90;;;;;;7292002;19;20185;-91
2023/05/11 04:57:24;;;;;;;21.90;8.20;;;14.00;99.90;;;;;;7291753;19;20196;-91
2023/05/11 04:59:50;;;;;;;22.03;8.70;;;14.10;99.90;;;;;;7292981;19;20192;-91
2023/05/11 05:02:16;;;;;;;22.20;8.50;;;14.20;99.90;;;;;;7292110;19;20189;-91
2023/05/11 05:04:41;;;;;;;22.20;8.80;;;14.10;99.90;;;;;;7294261;19;20196;-91
2023/05/11 05:07:11;;;;;;;22.87;8.60;;;14.20;99.90;;;;;;7312493;19;20178;-92
2023/05/11 05:09:39;;;;;;;22.47;8.80;;;14.20;99.90;;;;;;7294564;19;20189;-91
2023/05/11 05:12:10;;;;;;;21.53;8.47;;;14.10;99.90;;;;;;7293437;19;20188;-93
2023/05/11 05:14:36;;;;;;;18.57;8.40;;;14.20;99.90;;;;;;7291518;19;20204;-91
2023/05/11 05:17:05;;;;;;;27.00;9.67;;;14.30;99.90;;;;;;7290669;19;20496;-90
2023/05/11 05:19:33;;;;;;;21.90;8.53;;;14.30;99.90;;;;;;7291157;19;20208;-92
2023/05/11 05:21:59;;;;;;;23.27;9.07;;;14.40;99.90;;;;;;7289661;19;20197;-92
2023/05/11 05:24:25;;;;;;;22.93;9.43;;;14.50;99.90;;;;;;7291629;19;20189;-91
2023/05/11 05:26:51;;;;;;;18.20;8.17;;;14.40;99.90;;;;;;7292511;19;20177;-91
2023/05/11 05:29:17;;;;;;;25.20;8.60;;;14.40;99.90;;;;;;7295860;19;20185;-90
2023/05/11 05:31:43;;;;;;;19.00;8.50;;;14.50;99.90;;;;;;7302417;19;20233;-92
2023/05/11 05:34:09;;;;;;;23.50;9.60;;;14.50;99.90;;;;;;7314309;19;20181;-92
2023/05/11 05:36:36;;;;;;;21.77;9.20;;;14.50;99.90;;;;;;7292697;19;20278;-91
2023/05/11 05:39:02;;;;;;;27.10;8.67;;;14.50;99.90;;;;;;7289836;19;20180;-92
2023/05/11 05:41:28;;;;;;;20.37;8.57;;;14.40;99.90;;;;;;7286190;19;20185;-91
2023/05/11 05:43:55;;;;;;;17.50;8.30;;;14.50;99.90;;;;;;7291839;19;20197;-92
2023/05/11 05:46:21;;;;;;;21.13;8.80;;;14.60;99.90;;;;;;7289224;19;20188;-92
2023/05/11 05:48:48;;;;;;;21.03;8.90;;;14.70;99.90;;;;;;7290248;19;20234;-93
2023/05/11 05:51:13;;;;;;;26.97;8.30;;;14.80;99.90;;;;;;7291378;19;20205;-93
2023/05/11 05:53:39;;;;;;;16.83;7.33;;;14.90;99.90;;;;;;7311857;19;20202;-93
2023/05/11 05:56:05;;;;;;;20.23;7.53;;;15.00;99.90;;;;;;7290913;19;20264;-94
2023/05/11 05:58:31;;;;;;;18.83;7.10;;;15.10;99.90;;;;;;7289649;19;20188;-94
2023/05/11 06:00:57;;;;;;;22.47;8.70;;;15.10;99.90;;;;;;7288209;19;20257;-92
2023/05/11 06:03:23;;;;;;;21.30;7.73;;;15.20;99.90;;;;;;7288923;19;21253;-92
2023/05/11 06:05:49;;;;;;;18.00;7.43;;;15.40;99.90;;;;;;7286002;19;20189;-92
2023/05/11 06:08:15;;;;;;;22.53;7.53;;;15.60;99.90;;;;;;7285538;19;20203;-92
2023/05/11 06:10:40;;;;;;;23.10;7.50;;;15.70;99.90;;;;;;7300691;19;20202;-92
2023/05/11 06:13:08;;;;;;;21.50;6.80;;;15.90;99.90;;;;;;7310020;19;20198;-92
2023/05/11 06:15:35;;;;;;;19.13;6.13;;;16.00;99.90;;;;;;7286725;19;20188;-92
2023/05/11 06:18:08;;;;;;;17.80;6.57;;;16.10;99.90;;;;;;7287153;19;20643;-92
2023/05/11 06:20:34;;;;;;;20.77;6.77;;;16.20;99.90;;;;;;7286547;19;20199;-92
2023/05/11 06:23:01;;;;;;;18.17;6.60;;;16.40;99.90;;;;;;7286255;19;20244;-92
2023/05/11 06:25:28;;;;;;;19.03;6.33;;;16.50;99.90;;;;;;7285788;19;20618;-92
2023/05/11 06:27:53;;;;;;;22.60;7.00;;;16.50;99.90;;;;;;7285729;19;20212;-92
2023/05/11 06:30:20;;;;;;;18.83;6.40;;;16.70;99.90;;;;;;7286855;19;20213;-92
2023/05/11 06:32:47;;;;;;;18.67;6.40;;;16.80;99.90;;;;;;7283984;19;20213;-92
2023/05/11 06:35:16;;;;;;;16.47;5.67;;;17.00;99.90;;;;;;7289917;19;20196;-92
2023/05/11 06:37:42;;;;;;;17.33;5.90;;;17.10;99.90;;;;;;7298400;19;20256;-91
2023/05/11 06:40:09;;;;;;;21.80;6.13;;;17.20;99.90;;;;;;7307342;19;20185;-93
2023/05/11 06:42:34;;;;;;;15.83;5.07;;;17.30;99.90;;;;;;7287485;19;20607;-92
2023/05/11 06:45:07;;;;;;;17.77;5.77;;;17.60;99.90;;;;;;7285009;19;20185;-93
2023/05/11 06:47:33;;;;;;;24.10;6.10;;;18.20;99.90;;;;;;7285926;19;20185;-92
2023/05/11 06:49:59;;;;;;;17.63;5.13;;;18.50;99.90;;;;;;7287446;19;20201;-93
2023/05/11 06:52:25;;;;;;;19.83;5.57;;;18.80;99.90;;;;;;7286090;19;20196;-92
2023/05/11 06:54:51;;;;;;;17.73;5.73;;;18.80;99.90;;;;;;7285093;19;20189;-93
2023/05/11 06:57:17;;;;;;;19.80;5.40;;;18.90;99.90;;;;;;7284600;19;20223;-93
2023/05/11 06:59:43;;;;;;;19.13;5.80;;;19.00;99.90;;;;;;7284590;19;20191;-93
2023/05/11 07:02:09;;;;;;;20.40;5.17;;;19.40;99.90;;;;;;7307683;19;20212;-93
2023/05/11 07:04:36;;;;;;;18.63;5.53;;;19.90;99.90;;;;;;7286616;19;20185;-92
2023/05/11 07:07:02;;;;;;;14.63;4.90;;;20.90;99.90;;;;;;7283736;19;20186;-92
2023/05/11 07:09:28;;;;;;;14.67;5.00;;;21.40;99.90;;;;;;7284529;19;20192;-92
2023/05/11 07:11:55;;;;;;;16.10;5.03;;;20.40;99.90;;;;;;7284665;19;20195;-92
2023/05/11 07:14:21;;;;;;;18.77;5.37;;;20.10;99.90;;;;;;7284334;19;20248;-93
2023/05/11 07:16:47;;;;;;;16.40;5.27;;;20.70;99.90;;;;;;7285139;19;20210;-95
2023/05/11 07:19:13;;;;;;;13.90;4.30;;;21.10;99.90;;;;;;7283941;19;20187;-94
2023/05/11 07:21:39;;;;;;;12.57;4.30;;;22.60;99.90;;;;;;7307886;19;20304;-92
2023/05/11 07:24:05;;;;;;;13.63;3.70;;;22.80;99.90;;;;;;7284233;19;20225;-93
2023/05/11 07:26:31;;;;;;;17.50;4.20;;;23.60;99.90;;;;;;7284015;19;20273;-94
2023/05/11 07:28:59;;;;;;;12.53;3.90;;;23.90;99.90;;;;;;7284817;19;20683;-93
2023/05/11 07:31:25;;;;;;;11.70;3.80;;;24.40;99.90;;;;;;7284260;19;20197;-94
2023/05/11 07:33:52;;;;;;;12.30;3.63;;;24.50;99.90;;;;;;7283612;19;20640;-92
2023/05/11 07:36:18;;;;;;;12.23;3.83;;;23.90;99.90;;;;;;7283231;19;20639;-92
2023/05/11 07:38:43;;;;;;;11.67;3.43;;;24.10;99.90;;;;;;7282741;19;20185;-92
2023/05/11 07:41:09;;;;;;;13.83;4.17;;;23.60;99.90;;;;;;7309699;19;20189;-92
2023/05/11 07:43:35;;;;;;;15.93;3.83;;;23.70;99.90;;;;;;7286950;19;20529;-94
2023/05/11 07:46:01;;;;;;;10.97;3.60;;;23.50;99.90;;;;;;7287872;19;20225;-92
2023/05/11 07:48:27;;;;;;;15.13;4.10;;;23.90;99.90;;;;;;7291331;19;20188;-93
2023/05/11 07:50:52;;;;;;;11.77;3.80;;;23.80;99.90;;;;;;7291451;19;20216;-93
2023/05/11 07:53:18;;;;;;;12.53;4.17;;;23.80;99.90;;;;;;7291315;19;20649;-93
2023/05/11 07:55:44;;;;;;;9.07;2.90;;;24.80;99.90;;;;;;7288883;19;20185;-93
2023/05/11 07:58:10;;;;;;;11.00;3.70;;;24.60;99.90;;;;;;7319735;19;20304;-94
2023/05/11 08:00:36;;;;;;;11.47;3.70;;;24.00;99.90;;;;;;7299087;19;20203;-93
2023/05/11 08:03:02;;;;;;;12.50;4.27;;;23.40;99.90;;;;;;7301466;19;20968;-93
2023/05/11 08:05:29;;;;;;;14.50;4.30;;;22.70;99.90;;;;;;7318980;19;20185;-93
2023/05/11 08:07:55;;;;;;;11.23;4.23;;;22.30;99.90;;;;;;7316879;19;20176;-94
2023/05/11 08:10:20;;;;;;;13.47;4.27;;;21.80;99.90;;;;;;7317939;19;20220;-93
2023/05/11 08:12:46;;;;;;;14.30;3.93;;;21.60;99.90;;;;;;7314882;19;20725;-93
2023/05/11 08:15:12;;;;;;;12.07;4.00;;;21.40;99.90;;;;;;7312335;19;20201;-93
2023/05/11 08:17:38;;;;;;;10.20;3.53;;;21.30;99.90;;;;;;7318118;19;20630;-93
2023/05/11 08:20:05;;;;;;;16.07;4.10;;;21.20;99.90;;;;;;7292203;19;20215;-94
2023/05/11 08:22:31;;;;;;;10.70;3.70;;;20.70;99.90;;;;;;7290814;19;20262;-94
2023/05/11 08:24:57;;;;;;;11.10;4.30;;;20.50;99.90;;;;;;7290878;19;20189;-93
2023/05/11 08:27:23;;;;;;;12.13;4.40;;;20.30;99.90;;;;;;7291165;19;20283;-93
2023/05/11 08:29:49;;;;;;;13.80;4.13;;;20.00;99.90;;;;;;7291841;19;20680;-93
2023/05/11 08:32:15;;;;;;;10.50;4.00;;;20.10;99.90;;;;;;7288759;19;20251;-94
2023/05/11 08:34:41;;;;;;;12.67;3.70;;;20.00;99.90;;;;;;7304227;19;20683;-94
2023/05/11 08:37:07;;;;;;;13.23;3.70;;;20.20;99.90;;;;;;7310192;19;20625;-93
2023/05/11 08:39:33;;;;;;;11.53;3.80;;;20.20;99.90;;;;;;7288985;19;20289;-94
2023/05/11 08:42:01;;;;;;;12.23;3.43;;;20.50;99.90;;;;;;7289591;19;20287;-93
2023/05/11 08:44:29;;;;;;;11.30;3.67;;;20.40;99.90;;;;;;7290119;19;20189;-92
2023/05/11 08:46:57;;;;;;;11.93;3.00;;;20.20;99.90;;;;;;7299025;19;20188;-94
2023/05/11 08:49:23;;;;;;;10.37;3.23;;;20.00;99.90;;;;;;7291170;19;20188;-93
2023/05/11 08:51:48;;;;;;;15.30;3.57;;;20.00;99.90;;;;;;7288278;19;20209;-93
2023/05/11 08:54:14;;;;;;;12.13;3.40;;;20.40;99.90;;;;;;7289061;19;20206;-94
2023/05/11 08:56:42;;;;;;;13.63;3.63;;;20.40;99.90;;;;;;7310749;19;20176;-93
2023/05/11 08:59:08;;;;;;;9.10;2.93;;;21.00;99.90;;;;;;7311662;19;20544;-93
2023/05/11 09:01:36;;;;;;;12.23;3.13;;;22.00;99.90;;;;;;7290108;19;20195;-93
2023/05/11 09:04:04;;;;;;;9.17;3.00;;;23.50;99.90;;;;;;7289545;19;20182;-93
2023/05/11 09:06:30;;;;;;;10.47;3.00;;;24.10;99.90;;;;;;7288747;19;20188;-93
2023/05/11 09:08:57;;;;;;;12.00;3.37;;;24.20;99.90;;;;;;7290992;19;20189;-93
2023/05/11 09:11:24;;;;;;;13.87;3.57;;;23.80;99.90;;;;;;7289370;19;20180;-94
2023/05/11 09:13:50;;;;;;;11.60;3.00;;;23.80;99.90;;;;;;7287582;19;20177;-94
2023/05/11 09:16:16;;;;;;;10.57;3.27;;;24.00;99.90;;;;;;7289450;19;20185;-94
2023/05/11 09:18:49;;;;;;;11.57;3.40;;;23.80;99.90;;;;;;7287080;19;20181;-93
2023/05/11 09:21:16;;;;;;;10.83;3.43;;;23.20;99.90;;;;;;7289769;19;20208;-93
2023/05/11 09:23:42;;;;;;;11.40;3.43;;;22.90;99.90;;;;;;7293679;19;20183;-92
2023/05/11 09:26:27;;;;;;;11.53;3.30;;;22.80;99.90;;;;;;7309562;19;20186;-93
2023/05/11 09:28:57;;;;;;;10.00;3.10;;;22.40;99.90;;;;;;7187866;19;2004426;-94
2023/05/11 09:31:37;;;;;;;10.27;3.30;;;22.30;99.90;;;;;;7287814;19;20208;-94
2023/05/11 09:34:16;;;;;;;11.27;3.43;;;22.10;99.90;;;;;;7288658;19;20291;-94
2023/05/11 09:36:44;;;;;;;13.30;3.30;;;22.10;99.90;;;;;;7268857;19;20228;-94
2023/05/11 09:39:11;;;;;;;11.43;3.60;;;22.30;99.90;;;;;;7310343;19;20190;-94
2023/05/11 09:41:37;;;;;;;11.47;2.83;;;22.70;99.90;;;;;;7289235;19;20204;-93
2023/05/11 09:44:14;;;;;;;10.57;3.13;;;22.90;99.90;;;;;;7289061;19;20196;-94
2023/05/11 09:46:43;;;;;;;11.33;3.10;;;22.80;99.90;;;;;;7287813;19;20289;-94
2023/05/11 09:49:12;;;;;;;8.57;2.83;;;22.80;99.90;;;;;;7287550;19;20191;-93
2023/05/11 09:51:39;;;;;;;9.73;3.17;;;22.50;99.90;;;;;;7298108;19;20194;-93
2023/05/11 09:54:19;;;;;;;15.17;4.20;;;22.50;99.90;;;;;;7290697;19;20299;-93
2023/05/11 09:56:48;;;;;;;11.20;3.60;;;21.50;99.90;;;;;;7187303;19;2004411;-93
2023/05/11 09:59:16;;;;;;;12.70;3.53;;;21.10;99.90;;;;;;7287462;19;20202;-93
2023/05/11 10:01:42;;;;;;;13.50;3.57;;;21.00;99.90;;;;;;7293889;19;20280;-93
2023/05/11 10:04:09;;;;;;;12.70;3.60;;;21.20;99.90;;;;;;7309325;19;20195;-92
2023/05/11 10:06:52;;;;;;;14.30;3.70;;;21.70;99.90;;;;;;7285503;19;20192;-93
2023/05/11 10:09:22;;;;;;;10.37;3.90;;;21.80;99.90;;;;;;7182923;19;2004441;-93
2023/05/11 10:11:49;;;;;;;12.97;3.57;;;21.80;99.90;;;;;;7286851;19;20191;-94
2023/05/11 10:14:17;;;;;;;12.27;3.40;;;22.40;99.90;;;;;;7286418;19;20198;-94
2023/05/11 10:16:45;;;;;;;8.57;3.50;;;22.40;99.90;;;;;;7285199;19;20194;-93
2023/05/11 10:19:13;;;;;;;11.87;4.13;;;22.40;99.90;;;;;;7301191;19;20213;-93
2023/05/11 10:21:40;;;;;;;9.57;3.37;;;22.20;99.90;;;;;;7308925;19;20198;-93
2023/05/11 10:24:06;;;;;;;10.90;3.50;;;22.20;99.90;;;;;;7287035;19;20288;-92
2023/05/11 10:26:33;;;;;;;9.07;3.13;;;22.40;99.90;;;;;;7285329;19;20314;-94
2023/05/11 10:29:00;;;;;;;11.50;3.43;;;22.40;99.90;;;;;;7286501;19;20204;-94
2023/05/11 10:31:27;;;;;;;10.43;3.50;;;21.90;99.90;;;;;;7286504;19;20209;-94
2023/05/11 10:33:54;;;;;;;9.83;3.20;;;23.10;99.90;;;;;;7285809;19;20193;-93
2023/05/11 10:36:22;;;;;;;10.37;2.80;;;25.60;99.90;;;;;;7285267;19;20188;-93
2023/05/11 10:38:48;;;;;;;9.27;2.67;;;28.30;99.90;;;;;;7285977;19;20232;-94
2023/05/11 10:41:45;;;;;;;8.20;2.75;;;30.50;99.90;;;;;;7286186;19;20217;-93
2023/05/11 10:44:29;;;;;;;11.88;3.67;;;30.40;91.70;;;;;;7279768;19;20188;-93
2023/05/11 10:47:13;;;;;;;9.82;2.90;;;31.20;90.30;;;;;;7287378;19;20193;-93
2023/05/11 10:50:23;;;;;;;10.15;3.45;;;31.30;90.20;;;;;;7287222;19;20276;-93
2023/05/11 10:53:32;;;;;;;11.05;3.40;;;30.40;91.20;;;;;;7080699;19;2004688;-93
2023/05/11 10:56:17;;;;;;;11.38;3.67;;;29.30;94.20;;;;;;7195178;19;2004405;-92
2023/05/11 10:59:08;;;;;;;9.68;3.47;;;29.50;93.70;;;;;;7265039;19;20196;-93
2023/05/11 11:01:38;;;;;;;10.55;3.47;;;30.50;92.70;;;;;;7287601;19;20293;-94
2023/05/11 11:04:09;;;;;;;11.45;3.15;;;31.70;88.30;;;;;;7286440;19;20223;-93
2023/05/11 11:06:38;;;;;;;10.38;3.20;;;32.80;85.60;;;;;;7286080;19;20283;-94
2023/05/11 11:09:10;;;;;;;9.30;3.30;;;34.00;77.70;;;;;;7285730;19;20198;-93
2023/05/11 11:11:42;;;;;;;9.85;3.40;;;34.60;72.90;;;;;;7286651;19;20202;-93
2023/05/11 11:14:09;;;;;;;8.63;3.08;;;34.70;69.40;;;;;;7286015;19;20533;-93
2023/05/11 11:16:36;;;;;;;8.27;3.10;;;34.20;72.30;;;;;;7285892;19;20189;-93
2023/05/11 11:19:29;;;;;;;8.85;3.28;;;33.30;68.10;;;;;;7289378;19;20190;-94
2023/05/11 11:22:00;;;;;;;10.32;3.33;;;33.90;69.10;;;;;;7191382;19;2004592;-93
2023/05/11 11:24:38;;;;;;;8.00;3.00;;;33.80;68.70;;;;;;7293467;19;20188;-93
2023/05/11 11:27:08;;;;;;;8.40;2.97;;;32.70;70.10;;;;;;7291405;19;20241;-93
2023/05/11 11:29:39;;;;;;;7.85;2.75;;;32.50;67.40;;;;;;7292432;19;20197;-94
2023/05/11 11:32:23;;;;;;;9.38;3.03;;;32.80;68.60;;;;;;7291084;19;20189;-93
2023/05/11 11:34:49;;;;;;;8.63;3.10;;;33.60;65.20;;;;;;7189704;19;2004401;-93
2023/05/11 11:37:17;;;;;;;9.77;3.60;;;33.50;69.30;;;;;;7291972;19;20790;-93
2023/05/11 11:39:43;;;;;;;9.05;3.17;;;33.10;68.40;;;;;;7291529;19;20181;-94
2023/05/11 11:42:20;;;;;;;9.48;3.30;;;32.40;67.20;;;;;;7312565;19;20201;-94
2023/05/11 11:45:20;;;;;;;11.07;3.50;;;32.00;70.90;;;;;;7189586;19;2004423;-95
2023/05/11 11:48:07;;;;;;;10.75;3.38;;;33.50;69.90;;;;;;7189010;19;2004446;-94
2023/05/11 11:50:33;;;;;;;10.82;3.20;;;33.60;65.20;;;;;;7291155;19;20602;-95
2023/05/11 11:52:59;;;;;;;9.35;3.20;;;30.90;68.70;;;;;;7290048;19;20189;-93
2023/05/11 11:55:46;;;;;;;8.85;3.40;;;29.10;76.60;;;;;;7290514;19;20611;-94
2023/05/11 11:58:32;;;;;;;11.60;3.13;;;28.40;80.00;;;;;;7274137;19;20264;-94
2023/05/11 12:00:58;;;;;;;9.70;3.40;;;28.60;84.50;;;;;;7298221;19;20193;-94
2023/05/11 12:03:24;;;;;;;8.77;3.28;;;28.30;82.90;;;;;;7295606;19;20196;-94
2023/05/11 12:05:55;;;;;;;9.40;3.30;;;27.00;80.00;;;;;;7292126;19;20283;-94
2023/05/11 12:08:23;;;;;;;10.45;3.17;;;26.40;83.90;;;;;;7294256;19;20189;-96
2023/05/11 12:10:53;;;;;;;7.35;3.10;;;26.60;86.00;;;;;;7295356;19;20186;-94
2023/05/11 12:13:20;;;;;;;7.57;2.42;;;26.70;89.80;;;;;;7292952;19;20322;-95
2023/05/11 12:15:46;;;;;;;9.23;2.90;;;27.10;90.40;;;;;;7295076;19;20181;-94
2023/05/11 12:18:21;;;;;;;10.57;3.30;;;26.90;82.90;;;;;;7304168;19;20193;-92
2023/05/11 12:20:47;;;;;;;11.07;3.20;;;26.40;85.70;;;;;;7292519;19;20199;-93
2023/05/11 12:23:13;;;;;;;10.02;3.25;;;26.30;92.80;;;;;;7291537;19;20195;-92
2023/05/11 12:25:39;;;;;;;7.35;2.88;;;26.10;89.60;;;;;;7311947;19;20278;-93
2023/05/11 12:28:05;;;;;;;9.40;2.95;;;25.90;85.80;;;;;;7290065;19;20177;-94
2023/05/11 12:30:33;;;;;;;10.63;3.03;;;25.80;88.90;;;;;;7289991;19;20238;-92
2023/05/11 12:33:00;;;;;;;9.45;3.40;;;25.60;92.40;;;;;;7289137;19;20226;-93
2023/05/11 12:35:28;;;;;;;9.30;3.05;;;25.30;86.30;;;;;;7291344;19;20185;-93
2023/05/11 12:37:56;;;;;;;10.10;3.17;;;24.80;89.20;;;;;;7289580;19;20738;-93
2023/05/11 12:40:23;;;;;;;10.90;3.77;;;24.80;96.80;;;;;;7290122;19;20192;-93
2023/05/11 12:42:56;;;;;;;13.43;3.40;;;24.70;95.80;;;;;;7290333;19;20227;-92